Time;durP1;ratioP1;P1;durP2;ratioP2;P2;SDS_P1;SDS_P2;PMS_P1;PMS_P2;Temp;Humidity;BMP_temperature;BMP_pressure;BME280_temperature;BME280_humidity;BME280_pressure;Samples;Min_cycle;Max_cycle;Signal;HPM_P1;HPM_P2
2023/05/04 00:00:06;;;;;;;4.80;2.50;;;;;;;7.72;100.00;101410.69;686372;28;1280;-75
2023/05/04 00:00:26;;;;;;;5.25;2.70;;;;;;;7.74;100.00;101417.69;691211;28;1121;-74
2023/05/04 00:00:50;;;;;;;5.22;2.50;;;;;;;7.80;100.00;101428.19;688959;28;1243;-73
2023/05/04 00:01:10;;;;;;;4.45;2.53;;;;;;;7.79;100.00;101403.00;687206;28;4319;-74
2023/05/04 00:01:31;;;;;;;5.73;2.60;;;;;;;7.82;100.00;101413.50;684917;28;1172;-74
2023/05/04 00:01:51;;;;;;;4.80;2.60;;;;;;;7.84;100.00;101409.19;682705;28;2651;-74
2023/05/04 00:02:12;;;;;;;5.77;2.33;;;;;;;7.86;100.00;101403.13;686974;28;1119;-74
2023/05/04 00:02:33;;;;;;;5.80;2.40;;;;;;;7.84;100.00;101406.56;687676;28;1038;-75
2023/05/04 00:02:55;;;;;;;5.68;2.38;;;;;;;7.83;100.00;101403.94;686187;28;1163;-75
2023/05/04 00:03:16;;;;;;;5.25;2.38;;;;;;;7.80;100.00;101401.28;685439;28;1586;-74
2023/05/04 00:03:37;;;;;;;4.17;2.20;;;;;;;7.76;100.00;101400.34;681646;28;2625;-74
2023/05/04 00:03:58;;;;;;;4.78;2.70;;;;;;;7.74;100.00;101402.06;681449;28;4334;-75
2023/05/04 00:04:19;;;;;;;5.50;2.60;;;;;;;7.72;100.00;101398.53;685355;28;865;-75
2023/05/04 00:04:41;;;;;;;5.95;2.40;;;;;;;7.74;100.00;101415.06;686051;28;1276;-75
2023/05/04 00:05:04;;;;;;;5.22;2.47;;;;;;;7.71;100.00;101430.59;683565;28;1202;-75
2023/05/04 00:05:25;;;;;;;4.38;2.30;;;;;;;7.67;100.00;101426.22;685069;28;1017;-75
2023/05/04 00:05:46;;;;;;;5.20;2.65;;;;;;;7.69;100.00;101410.63;682907;29;882;-75
2023/05/04 00:06:07;;;;;;;6.00;2.60;;;;;;;7.66;100.00;101424.47;686952;28;2440;-75
2023/05/04 00:06:28;;;;;;;5.15;2.55;;;;;;;7.62;100.00;101426.09;687613;28;786;-75
2023/05/04 00:06:48;;;;;;;4.30;2.50;;;;;;;7.64;100.00;101428.75;685677;28;1281;-74
2023/05/04 00:07:09;;;;;;;4.57;2.30;;;;;;;7.62;100.00;101410.50;688258;28;4303;-75
2023/05/04 00:07:30;;;;;;;5.55;2.40;;;;;;;7.63;100.00;101429.63;687339;28;1226;-75
2023/05/04 00:07:50;;;;;;;5.40;2.50;;;;;;;7.63;100.00;101430.47;688095;28;1311;-75
2023/05/04 00:08:11;;;;;;;5.70;2.60;;;;;;;7.61;100.00;101413.06;684869;28;1803;-75
2023/05/04 00:08:32;;;;;;;4.97;2.35;;;;;;;7.61;100.00;101423.47;684940;28;880;-75
2023/05/04 00:08:52;;;;;;;4.45;2.20;;;;;;;7.60;100.00;101399.19;687171;28;1402;-75
2023/05/04 00:09:14;;;;;;;4.90;2.40;;;;;;;7.60;100.00;101407.00;685102;28;1204;-75
2023/05/04 00:09:34;;;;;;;4.82;2.60;;;;;;;7.59;100.00;101420.84;688404;28;1386;-75
2023/05/04 00:09:55;;;;;;;4.93;2.40;;;;;;;7.57;100.00;101401.72;683341;28;2338;-75
2023/05/04 00:10:16;;;;;;;4.63;2.22;;;;;;;7.56;100.00;101388.69;682337;28;4309;-75
2023/05/04 00:10:36;;;;;;;4.78;2.20;;;;;;;7.56;100.00;101419.91;687389;28;1166;-75
2023/05/04 00:10:57;;;;;;;5.43;2.20;;;;;;;7.63;100.00;101420.06;685612;28;1169;-75
2023/05/04 00:11:17;;;;;;;4.23;2.40;;;;;;;7.64;100.00;101393.19;687087;28;1186;-75
2023/05/04 00:11:38;;;;;;;5.53;2.50;;;;;;;7.64;100.00;101414.03;685252;28;1241;-76
2023/05/04 00:11:59;;;;;;;5.25;2.38;;;;;;;7.64;100.00;101410.53;680872;28;1212;-75
2023/05/04 00:12:19;;;;;;;4.57;2.33;;;;;;;7.62;100.00;101414.84;682059;28;1208;-75
2023/05/04 00:12:41;;;;;;;4.80;2.50;;;;;;;7.58;100.00;101439.91;681443;28;2306;-75
2023/05/04 00:13:01;;;;;;;5.13;2.47;;;;;;;7.59;100.00;101400.03;679999;28;4328;-76
2023/05/04 00:13:23;;;;;;;5.70;3.30;;;;;;;7.57;100.00;101413.84;684769;28;1517;-75
2023/05/04 00:13:43;;;;;;;4.22;2.60;;;;;;;7.57;100.00;101432.94;686209;28;1357;-75
2023/05/04 00:14:07;;;;;;;5.40;2.50;;;;;;;7.54;100.00;101411.19;686380;28;1085;-75
2023/05/04 00:14:27;;;;;;;6.57;2.50;;;;;;;7.55;100.00;101420.78;685251;28;1260;-75
2023/05/04 00:14:48;;;;;;;5.07;2.60;;;;;;;7.55;100.00;101399.97;682146;28;1075;-75
2023/05/04 00:15:09;;;;;;;4.97;2.55;;;;;;;7.52;100.00;101418.09;683979;28;1047;-75
2023/05/04 00:15:29;;;;;;;4.28;2.22;;;;;;;7.52;100.00;101392.97;688509;28;952;-75
2023/05/04 00:15:50;;;;;;;3.60;2.10;;;;;;;7.49;100.00;101404.19;686769;28;1096;-75
2023/05/04 00:16:11;;;;;;;4.13;2.40;;;;;;;7.48;100.00;101401.56;684124;28;4378;-74
2023/05/04 00:16:31;;;;;;;4.82;2.40;;;;;;;7.46;100.00;101404.13;681027;28;3240;-75
2023/05/04 00:16:51;;;;;;;5.53;2.50;;;;;;;7.45;100.00;101389.38;680786;28;1274;-75
2023/05/04 00:17:12;;;;;;;5.53;2.67;;;;;;;7.44;100.00;101389.34;685404;28;1327;-74
2023/05/04 00:17:32;;;;;;;5.13;2.70;;;;;;;7.45;100.00;101388.50;687340;28;1223;-75
2023/05/04 00:17:53;;;;;;;4.70;2.50;;;;;;;7.42;100.00;101386.72;682948;28;1292;-75
2023/05/04 00:18:14;;;;;;;4.32;2.63;;;;;;;7.45;100.00;101388.50;682625;29;1424;-75
2023/05/04 00:18:34;;;;;;;4.10;2.33;;;;;;;7.42;100.00;101383.22;682337;29;869;-75
2023/05/04 00:18:55;;;;;;;4.47;2.30;;;;;;;7.44;100.00;101387.59;682624;28;1401;-75
2023/05/04 00:19:18;;;;;;;4.70;2.42;;;;;;;7.43;100.00;101396.25;683930;28;4259;-76
2023/05/04 00:19:40;;;;;;;4.80;2.45;;;;;;;7.42;100.00;101381.50;682133;28;1233;-75
2023/05/04 00:20:02;;;;;;;4.57;2.42;;;;;;;7.42;100.00;101397.13;683241;28;1284;-75
2023/05/04 00:20:22;;;;;;;4.10;2.10;;;;;;;7.40;100.00;101388.38;687169;28;1074;-75
2023/05/04 00:20:46;;;;;;;5.75;2.45;;;;;;;7.42;100.00;101402.31;683983;28;1051;-75
2023/05/04 00:21:09;;;;;;;5.15;2.50;;;;;;;7.36;100.00;101383.97;684337;28;1474;-75
2023/05/04 00:21:29;;;;;;;5.05;2.60;;;;;;;7.39;100.00;101386.63;685386;28;1417;-75
2023/05/04 00:21:50;;;;;;;4.53;2.30;;;;;;;7.41;100.00;101408.34;686702;28;904;-74
2023/05/04 00:22:10;;;;;;;4.65;2.30;;;;;;;7.41;100.00;101405.75;689128;28;4369;-75
2023/05/04 00:22:31;;;;;;;4.65;2.35;;;;;;;7.41;100.00;101384.94;690569;28;1291;-74
2023/05/04 00:22:51;;;;;;;5.07;2.70;;;;;;;7.41;100.00;101384.94;686087;28;1453;-75
2023/05/04 00:23:12;;;;;;;5.13;2.72;;;;;;;7.43;100.00;101384.97;685359;28;1709;-74
2023/05/04 00:23:32;;;;;;;4.73;2.63;;;;;;;7.53;100.00;101383.41;685228;28;1168;-74
2023/05/04 00:23:53;;;;;;;5.07;2.60;;;;;;;7.55;100.00;101386.94;683636;28;1410;-74
2023/05/04 00:24:13;;;;;;;4.90;2.43;;;;;;;7.53;100.00;101386.03;687704;28;1252;-74
2023/05/04 00:24:34;;;;;;;4.78;2.30;;;;;;;7.52;100.00;101381.66;685330;28;2571;-75
2023/05/04 00:24:54;;;;;;;4.27;2.40;;;;;;;7.49;100.00;101383.38;681121;28;1188;-75
2023/05/04 00:25:15;;;;;;;4.95;2.50;;;;;;;7.47;100.00;101384.19;684130;28;4300;-76
2023/05/04 00:25:35;;;;;;;4.25;2.10;;;;;;;7.45;100.00;101396.31;684303;28;1276;-75
2023/05/04 00:25:59;;;;;;;5.93;2.53;;;;;;;7.43;100.00;101378.03;682586;28;1093;-76
2023/05/04 00:26:20;;;;;;;5.75;2.58;;;;;;;7.43;100.00;101392.78;685701;28;806;-76
2023/05/04 00:26:41;;;;;;;5.07;2.40;;;;;;;7.46;100.00;101387.63;685167;28;1538;-76
2023/05/04 00:27:02;;;;;;;4.80;2.40;;;;;;;7.48;100.00;101405.03;680257;29;925;-76
2023/05/04 00:27:23;;;;;;;4.95;2.40;;;;;;;7.49;100.00;101398.97;683292;28;2496;-75
2023/05/04 00:27:43;;;;;;;4.68;2.35;;;;;;;7.50;100.00;101387.75;682305;28;974;-76
2023/05/04 00:28:04;;;;;;;5.10;2.42;;;;;;;7.49;100.00;101404.19;685068;28;4311;-76
2023/05/04 00:28:25;;;;;;;4.67;2.20;;;;;;;7.47;100.00;101395.47;685971;28;1448;-75
2023/05/04 00:28:45;;;;;;;6.25;2.42;;;;;;;7.46;100.00;101388.53;687026;28;1139;-75
2023/05/04 00:29:05;;;;;;;6.10;2.60;;;;;;;7.44;100.00;101379.78;682659;28;1226;-76
2023/05/04 00:29:26;;;;;;;4.20;2.50;;;;;;;7.42;100.00;101381.50;685688;28;1168;-75
2023/05/04 00:29:46;;;;;;;4.10;2.50;;;;;;;7.42;100.00;101381.50;687523;28;1922;-76
2023/05/04 00:30:07;;;;;;;5.27;2.30;;;;;;;7.43;100.00;101388.44;687733;28;2382;-75
2023/05/04 00:30:28;;;;;;;4.85;2.35;;;;;;;7.41;100.00;101382.34;692493;28;1479;-76
2023/05/04 00:30:49;;;;;;;4.77;2.20;;;;;;;7.42;100.00;101383.22;686778;28;1320;-75
2023/05/04 00:31:09;;;;;;;4.20;2.10;;;;;;;7.43;100.00;101384.97;684277;28;4314;-75
2023/05/04 00:31:30;;;;;;;4.20;2.30;;;;;;;7.44;100.00;101377.19;683595;28;2980;-76
2023/05/04 00:31:50;;;;;;;4.40;2.30;;;;;;;7.46;100.00;101385.91;683338;28;1451;-75
2023/05/04 00:32:11;;;;;;;4.57;2.27;;;;;;;7.45;100.00;101397.16;682102;29;1439;-76
2023/05/04 00:32:32;;;;;;;4.60;2.20;;;;;;;7.46;100.00;101382.41;687203;28;1149;-76
2023/05/04 00:32:52;;;;;;;4.05;2.35;;;;;;;7.46;100.00;101382.41;680919;28;1237;-76
2023/05/04 00:33:13;;;;;;;4.80;2.30;;;;;;;7.46;100.00;101398.94;682564;28;1182;-76
2023/05/04 00:33:33;;;;;;;5.38;2.33;;;;;;;7.47;100.00;101400.66;682261;29;869;-76
2023/05/04 00:33:54;;;;;;;5.40;2.60;;;;;;;7.45;100.00;101381.56;681026;29;1265;-75
2023/05/04 00:34:14;;;;;;;5.70;2.47;;;;;;;7.49;100.00;101398.97;684371;28;4265;-75
2023/05/04 00:34:35;;;;;;;5.10;2.23;;;;;;;7.45;100.00;101391.97;686104;28;2333;-76
2023/05/04 00:34:56;;;;;;;5.28;2.20;;;;;;;7.47;100.00;101411.06;685913;28;1199;-76
2023/05/04 00:35:16;;;;;;;4.90;2.28;;;;;;;7.46;100.00;101375.50;684379;28;955;-75
2023/05/04 00:35:39;;;;;;;4.25;2.10;;;;;;;7.53;100.00;101373.00;681410;28;1367;-75
2023/05/04 00:36:02;;;;;;;3.53;2.10;;;;;;;7.60;100.00;101383.59;686171;28;1335;-75
2023/05/04 00:36:22;;;;;;;4.38;2.10;;;;;;;7.57;100.00;101385.25;689300;28;864;-76
2023/05/04 00:36:43;;;;;;;4.75;2.30;;;;;;;7.57;100.00;101375.69;687858;28;880;-75
2023/05/04 00:37:03;;;;;;;3.93;2.00;;;;;;;7.57;100.00;101372.22;685090;28;4501;-76
2023/05/04 00:37:24;;;;;;;3.93;2.30;;;;;;;7.58;100.00;101415.63;683082;28;1245;-75
2023/05/04 00:37:45;;;;;;;4.00;2.30;;;;;;;7.55;100.00;101381.75;682059;28;1092;-76
2023/05/04 00:38:06;;;;;;;4.32;2.30;;;;;;;7.57;100.00;101372.22;680287;28;1178;-76
2023/05/04 00:38:26;;;;;;;4.27;2.30;;;;;;;7.55;100.00;101389.56;681654;29;2522;-76
2023/05/04 00:38:51;;;;;;;4.22;2.15;;;;;;;7.54;100.00;101388.66;681569;28;1362;-75
2023/05/04 00:39:12;;;;;;;4.15;2.00;;;;;;;7.56;100.00;101393.88;681704;29;4982;-76
2023/05/04 00:39:34;;;;;;;5.30;2.55;;;;;;;7.55;100.00;101399.97;682221;28;1033;-75
2023/05/04 00:39:54;;;;;;;5.15;2.38;;;;;;;7.59;100.00;101373.16;679960;29;944;-75
2023/05/04 00:40:15;;;;;;;3.80;2.30;;;;;;;7.58;100.00;101387.00;680179;29;4352;-75
2023/05/04 00:40:35;;;;;;;5.00;2.30;;;;;;;7.55;100.00;101390.41;679991;29;890;-76
2023/05/04 00:40:57;;;;;;;5.90;2.37;;;;;;;7.55;100.00;101377.41;679347;28;1357;-75
2023/05/04 00:41:19;;;;;;;5.45;2.05;;;;;;;7.54;100.00;101375.63;687194;28;1338;-76
2023/05/04 00:41:40;;;;;;;6.95;2.30;;;;;;;7.54;100.00;101379.97;685995;28;1154;-76
2023/05/04 00:42:01;;;;;;;5.20;2.37;;;;;;;7.52;100.00;101382.56;682242;28;1377;-75
2023/05/04 00:42:22;;;;;;;4.22;2.30;;;;;;;7.50;100.00;101379.94;686349;28;1141;-75
2023/05/04 00:42:43;;;;;;;4.87;2.40;;;;;;;7.50;100.00;101376.44;687456;28;1231;-76
2023/05/04 00:43:03;;;;;;;5.07;2.40;;;;;;;7.49;100.00;101383.38;682493;28;4286;-76
2023/05/04 00:43:25;;;;;;;4.72;2.60;;;;;;;7.50;100.00;101377.31;679664;29;1260;-75
2023/05/04 00:43:46;;;;;;;5.45;2.50;;;;;;;7.47;100.00;101374.66;678688;29;2405;-75
2023/05/04 00:44:06;;;;;;;4.95;2.33;;;;;;;7.48;100.00;101376.41;677349;29;965;-75
2023/05/04 00:44:27;;;;;;;4.07;2.30;;;;;;;7.45;100.00;101386.75;681184;29;1374;-76
2023/05/04 00:44:47;;;;;;;4.38;2.25;;;;;;;7.47;100.00;101378.97;687579;28;1248;-75
2023/05/04 00:45:08;;;;;;;6.63;2.60;;;;;;;7.49;100.00;101378.16;685405;28;1241;-75
2023/05/04 00:45:31;;;;;;;4.70;2.23;;;;;;;7.49;100.00;101383.38;684934;28;790;-76
2023/05/04 00:45:52;;;;;;;5.22;2.28;;;;;;;7.49;100.00;101374.66;683352;28;987;-76
2023/05/04 00:46:13;;;;;;;4.90;2.20;;;;;;;7.49;100.00;101383.38;682213;28;4352;-76
2023/05/04 00:46:37;;;;;;;4.80;2.38;;;;;;;7.48;100.00;101379.00;681802;28;2467;-75
2023/05/04 00:46:58;;;;;;;4.28;2.40;;;;;;;7.48;100.00;101384.22;680562;28;1511;-76
2023/05/04 00:47:20;;;;;;;4.63;2.30;;;;;;;7.48;100.00;101385.94;684891;28;1120;-75
2023/05/04 00:47:41;;;;;;;4.88;2.50;;;;;;;7.49;100.00;101375.56;683640;28;1364;-76
2023/05/04 00:48:02;;;;;;;4.00;2.20;;;;;;;7.51;100.00;101370.38;682788;28;1375;-76
2023/05/04 00:48:23;;;;;;;4.28;2.30;;;;;;;7.50;100.00;101374.72;679573;28;1427;-76
2023/05/04 00:48:47;;;;;;;5.07;2.40;;;;;;;7.51;100.00;101383.41;687800;28;1148;-76
2023/05/04 00:49:08;;;;;;;5.20;2.42;;;;;;;7.49;100.00;101369.47;685017;28;4343;-76
2023/05/04 00:49:28;;;;;;;3.70;2.10;;;;;;;7.47;100.00;101368.56;687634;28;1371;-76
2023/05/04 00:49:50;;;;;;;3.90;2.30;;;;;;;7.47;100.00;101373.78;686097;28;1931;-75
2023/05/04 00:50:11;;;;;;;4.85;2.35;;;;;;;7.45;100.00;101370.28;683007;28;1244;-76
2023/05/04 00:50:32;;;;;;;5.05;2.33;;;;;;;7.44;100.00;101372.00;687914;28;1342;-75
2023/05/04 00:50:53;;;;;;;4.90;2.40;;;;;;;7.43;100.00;101378.03;688230;28;1349;-75
2023/05/04 00:51:15;;;;;;;4.80;2.20;;;;;;;7.41;100.00;101369.34;687761;28;881;-76
2023/05/04 00:51:35;;;;;;;3.88;2.30;;;;;;;7.45;100.00;101373.75;682191;29;1235;-76
2023/05/04 00:51:57;;;;;;;3.60;2.20;;;;;;;7.45;100.00;101363.34;680477;28;4462;-78
2023/05/04 00:52:19;;;;;;;4.40;2.30;;;;;;;7.44;100.00;101366.78;681467;29;898;-75
2023/05/04 00:52:42;;;;;;;4.50;2.20;;;;;;;7.45;100.00;101365.09;683590;28;2473;-76
2023/05/04 00:53:08;;;;;;;4.32;2.40;;;;;;;7.47;100.00;101358.16;683264;28;1659;-76
2023/05/04 00:53:29;;;;;;;4.53;2.20;;;;;;;7.44;100.00;101365.91;679977;29;1305;-75
2023/05/04 00:53:52;;;;;;;4.05;2.17;;;;;;;7.40;100.00;101367.56;683087;28;1322;-75
2023/05/04 00:54:16;;;;;;;4.75;2.20;;;;;;;7.42;100.00;101365.91;689426;28;1477;-76
2023/05/04 00:54:37;;;;;;;4.43;2.20;;;;;;;7.39;100.00;101360.59;685124;28;1254;-76
2023/05/04 00:55:00;;;;;;;4.53;2.20;;;;;;;7.37;100.00;101357.13;685040;28;4283;-76
2023/05/04 00:55:21;;;;;;;4.10;2.10;;;;;;;7.38;100.00;101356.28;685832;28;2383;-75
2023/05/04 00:55:41;;;;;;;4.13;2.28;;;;;;;7.39;100.00;101362.34;686215;28;1352;-76
2023/05/04 00:56:03;;;;;;;4.03;2.37;;;;;;;7.39;100.00;101367.53;678378;29;1190;-75
2023/05/04 00:56:25;;;;;;;3.80;2.25;;;;;;;7.39;100.00;101359.75;683326;28;1338;-75
2023/05/04 00:56:46;;;;;;;4.40;2.30;;;;;;;7.38;100.00;101377.09;685062;28;1320;-76
2023/05/04 00:57:07;;;;;;;4.43;2.38;;;;;;;7.35;100.00;101389.13;683970;28;1071;-75
2023/05/04 00:57:27;;;;;;;4.50;2.40;;;;;;;7.36;100.00;101372.69;687328;28;1322;-76
2023/05/04 00:57:52;;;;;;;4.40;2.20;;;;;;;7.37;100.00;101375.31;692396;28;1416;-76
2023/05/04 00:58:12;;;;;;;3.35;2.10;;;;;;;7.37;100.00;101369.25;687752;28;5191;-75
2023/05/04 00:58:34;;;;;;;3.65;2.15;;;;;;;7.37;100.00;101366.66;688769;28;1008;-76
2023/05/04 00:58:56;;;;;;;5.28;2.20;;;;;;;7.36;100.00;101365.75;688834;28;908;-75
2023/05/04 00:59:17;;;;;;;5.00;2.20;;;;;;;7.38;100.00;101361.47;688405;28;2644;-75
2023/05/04 00:59:38;;;;;;;4.82;2.40;;;;;;;7.35;100.00;101364.00;689842;28;1434;-76
2023/05/04 00:59:58;;;;;;;4.00;2.25;;;;;;;7.38;100.00;101365.78;689285;28;1073;-75
2023/05/04 01:00:19;;;;;;;5.18;2.40;;;;;;;7.38;100.00;101364.09;693030;28;1067;-76
2023/05/04 01:00:40;;;;;;;4.00;2.07;;;;;;;7.37;100.00;101359.72;689669;28;1192;-76
2023/05/04 01:01:02;;;;;;;4.25;2.33;;;;;;;7.37;100.00;101362.31;684136;28;4560;-75
2023/05/04 01:01:23;;;;;;;4.60;2.25;;;;;;;7.36;100.00;101362.28;687436;28;1254;-75
2023/05/04 01:01:47;;;;;;;4.43;2.13;;;;;;;7.33;100.00;101356.16;689686;28;2384;-75
2023/05/04 01:02:09;;;;;;;3.72;2.20;;;;;;;7.36;100.00;101357.09;686817;28;1161;-76
2023/05/04 01:02:29;;;;;;;4.60;2.20;;;;;;;7.35;100.00;101358.78;682096;29;1166;-76
2023/05/04 01:02:53;;;;;;;3.75;2.13;;;;;;;7.36;100.00;101360.56;681391;28;1288;-76
2023/05/04 01:03:16;;;;;;;4.32;2.15;;;;;;;7.33;100.00;101391.72;683953;28;1379;-76
2023/05/04 01:03:36;;;;;;;4.78;2.40;;;;;;;7.36;100.00;101360.56;686867;28;813;-76
2023/05/04 01:03:57;;;;;;;3.97;2.10;;;;;;;7.36;100.00;101383.09;683575;28;4283;-77
2023/05/04 01:04:18;;;;;;;4.10;2.20;;;;;;;7.37;100.00;101372.72;686541;28;1809;-76
2023/05/04 01:04:38;;;;;;;4.47;2.10;;;;;;;7.38;100.00;101374.47;684332;28;1442;-76
2023/05/04 01:05:00;;;;;;;5.65;2.08;;;;;;;7.35;100.00;101371.78;682724;28;1316;-76
2023/05/04 01:05:26;;;;;;;5.00;2.08;;;;;;;7.37;100.00;101362.31;684209;28;2571;-75
2023/05/04 01:05:57;;;;;;;5.18;2.30;;;;;;;7.37;100.00;101366.66;686760;28;1539;-76
2023/05/04 01:06:34;;;;;;;4.90;2.00;;;;;;;7.38;100.00;101364.09;687222;28;1392;-76
2023/05/04 01:07:13;;;;;;;5.32;2.47;;;;;;;7.39;100.00;101368.41;685009;28;1380;-75
2023/05/04 01:08:00;;;;;;;4.00;2.15;;;;;;;7.40;100.00;101362.38;687713;28;4785;-76
2023/05/04 01:08:27;;;;;;;5.15;2.40;;;;;;;7.34;100.00;101359.66;689685;28;1652;-76
2023/05/04 01:09:21;;;;;;;5.13;2.45;;;;;;;7.35;100.00;101360.53;688662;28;1354;-76
2023/05/04 01:09:48;;;;;;;3.80;2.15;;;;;;;7.33;100.00;101363.97;688072;28;1906;-76
2023/05/04 01:10:18;;;;;;;3.45;1.92;;;;;;;7.35;100.00;101361.41;685202;28;4306;-76
2023/05/04 01:10:49;;;;;;;3.40;2.03;;;;;;;7.36;100.00;101378.75;689420;28;993;-76
2023/05/04 01:11:14;;;;;;;3.58;1.90;;;;;;;7.45;100.00;101365.09;684204;28;1358;-75
2023/05/04 01:12:13;;;;;;;3.80;2.10;;;;;;;7.45;100.00;101376.34;686528;28;1497;-75
2023/05/04 01:12:45;;;;;;;4.28;2.20;;;;;;;7.41;100.00;101361.53;674524;29;1321;-76
2023/05/04 01:13:11;;;;;;;4.68;2.22;;;;;;;7.39;100.00;101397.03;684706;28;4341;-75
2023/05/04 01:13:34;;;;;;;3.92;2.05;;;;;;;7.36;100.00;101355.34;684831;28;828;-76
2023/05/04 01:13:55;;;;;;;6.15;2.53;;;;;;;7.38;100.00;101364.09;680747;28;902;-76
2023/05/04 01:14:20;;;;;;;5.00;2.08;;;;;;;7.35;100.00;101357.94;684281;28;1221;-76
2023/05/04 01:14:42;;;;;;;4.20;2.30;;;;;;;7.31;100.00;101349.19;686784;28;1288;-76
2023/05/04 01:15:04;;;;;;;4.55;2.05;;;;;;;7.31;100.00;101381.28;685255;28;921;-76
2023/05/04 01:15:26;;;;;;;4.60;2.10;;;;;;;7.34;100.00;101390.88;689769;28;1323;-75
2023/05/04 01:15:48;;;;;;;3.63;2.05;;;;;;;7.33;100.00;101355.31;690296;28;1004;-75
2023/05/04 01:16:09;;;;;;;3.53;2.05;;;;;;;7.30;100.00;101379.53;677397;28;4558;-76
2023/05/04 01:16:30;;;;;;;4.83;2.40;;;;;;;7.34;100.00;101351.84;688403;28;1173;-76
2023/05/04 01:16:56;;;;;;;5.00;2.60;;;;;;;7.32;100.00;101379.56;689927;28;1288;-75
2023/05/04 01:17:17;;;;;;;4.00;2.20;;;;;;;7.33;100.00;101368.31;690283;28;1347;-76
2023/05/04 01:17:41;;;;;;;3.85;2.20;;;;;;;7.32;100.00;101359.63;688049;28;1195;-76
2023/05/04 01:18:01;;;;;;;4.10;2.20;;;;;;;7.31;100.00;101364.78;688152;28;1341;-76
2023/05/04 01:18:22;;;;;;;4.35;2.13;;;;;;;7.31;100.00;101393.38;689855;28;758;-76
2023/05/04 01:18:43;;;;;;;4.03;2.20;;;;;;;7.30;100.00;101357.84;686379;28;1188;-76
2023/05/04 01:19:05;;;;;;;4.13;2.10;;;;;;;7.29;100.00;101376.88;685073;28;4326;-76
2023/05/04 01:19:27;;;;;;;4.03;2.10;;;;;;;7.29;100.00;101376.88;686727;28;1371;-75
2023/05/04 01:19:50;;;;;;;3.38;2.00;;;;;;;7.29;100.00;101350.88;687255;28;1149;-75
2023/05/04 01:20:11;;;;;;;3.60;2.00;;;;;;;7.28;100.00;101367.31;686072;28;1275;-75
2023/05/04 01:20:32;;;;;;;4.05;2.10;;;;;;;7.29;100.00;101358.69;685687;28;1400;-76
2023/05/04 01:20:52;;;;;;;3.83;2.00;;;;;;;7.30;100.00;101352.66;681103;28;1391;-76
2023/05/04 01:21:12;;;;;;;4.43;2.15;;;;;;;7.28;100.00;101349.13;684676;28;869;-76
2023/05/04 01:21:34;;;;;;;4.00;2.10;;;;;;;7.30;100.00;101360.44;682950;28;1152;-76
2023/05/04 01:21:56;;;;;;;4.72;2.20;;;;;;;7.27;100.00;101350.84;680513;28;928;-76
2023/05/04 01:22:16;;;;;;;5.05;2.08;;;;;;;7.28;100.00;101356.94;681937;28;4440;-75
2023/05/04 01:22:37;;;;;;;4.47;2.30;;;;;;;7.29;100.00;101350.88;682209;28;1309;-76
2023/05/04 01:22:58;;;;;;;4.25;2.20;;;;;;;7.27;100.00;101344.75;680212;28;913;-75
2023/05/04 01:23:19;;;;;;;4.68;2.35;;;;;;;7.26;100.00;101362.09;683390;28;1220;-76
2023/05/04 01:23:40;;;;;;;4.90;2.30;;;;;;;7.23;100.00;101353.38;685835;28;2651;-76
2023/05/04 01:24:00;;;;;;;3.87;2.30;;;;;;;7.24;100.00;101355.09;683255;28;1107;-76
2023/05/04 01:24:22;;;;;;;4.10;2.30;;;;;;;7.23;100.00;101359.44;684621;28;1385;-76
2023/05/04 01:24:43;;;;;;;4.43;2.28;;;;;;;7.22;100.00;101351.63;685199;28;888;-76
2023/05/04 01:25:05;;;;;;;3.38;2.05;;;;;;;7.22;100.00;101354.22;685201;28;4369;-76
2023/05/04 01:25:33;;;;;;;4.47;2.40;;;;;;;7.20;100.00;101353.28;687383;28;1269;-76
2023/05/04 01:26:03;;;;;;;4.25;2.20;;;;;;;7.20;100.00;101356.78;684909;28;993;-76
2023/05/04 01:26:31;;;;;;;4.20;2.30;;;;;;;7.20;100.00;101343.78;683248;28;2528;-75
2023/05/04 01:27:04;;;;;;;4.25;2.15;;;;;;;7.20;100.00;101374.09;680154;28;1481;-76
2023/05/04 01:27:41;;;;;;;3.55;2.00;;;;;;;7.21;100.00;101349.84;684368;28;1307;-76
2023/05/04 01:28:09;;;;;;;3.28;2.20;;;;;;;7.23;100.00;101353.38;685846;28;4316;-76
2023/05/04 01:28:40;;;;;;;4.10;2.20;;;;;;;7.24;100.00;101347.31;688954;28;1007;-76
2023/05/04 01:29:28;;;;;;;4.35;2.10;;;;;;;7.21;100.00;101355.06;686009;28;1233;-75
2023/05/04 01:30:16;;;;;;;5.00;2.25;;;;;;;7.21;100.00;101342.06;686789;28;1906;-76
2023/05/04 01:30:47;;;;;;;4.38;2.20;;;;;;;7.19;100.00;101343.75;689420;28;1370;-76
2023/05/04 01:31:13;;;;;;;4.93;2.03;;;;;;;7.19;100.00;101359.38;690028;28;4348;-76
2023/05/04 01:31:38;;;;;;;4.78;1.95;;;;;;;7.16;100.00;101363.63;689731;28;1376;-76
2023/05/04 01:32:01;;;;;;;4.57;2.03;;;;;;;7.16;100.00;101350.63;686549;28;1168;-76
2023/05/04 01:32:23;;;;;;;3.88;2.22;;;;;;;7.20;100.00;101375.00;683358;28;1260;-76
2023/05/04 01:32:44;;;;;;;4.53;2.13;;;;;;;7.20;100.00;101348.09;684723;28;1065;-76
2023/05/04 01:33:05;;;;;;;4.10;2.05;;;;;;;7.22;100.00;101362.03;688665;28;1247;-76
2023/05/04 01:33:27;;;;;;;3.85;2.03;;;;;;;7.19;100.00;101342.03;691613;28;1295;-76
2023/05/04 01:33:51;;;;;;;4.22;2.20;;;;;;;7.23;100.00;101345.56;692137;28;1397;-75
2023/05/04 01:34:12;;;;;;;3.53;2.20;;;;;;;7.23;100.00;101342.97;688483;28;4303;-75
2023/05/04 01:34:35;;;;;;;4.80;2.03;;;;;;;7.23;100.00;101348.19;686885;28;1175;-76
2023/05/04 01:34:56;;;;;;;5.20;2.05;;;;;;;7.23;100.00;101342.97;683236;28;1193;-76
2023/05/04 01:35:17;;;;;;;3.88;2.17;;;;;;;7.23;100.00;101336.03;687347;28;1216;-76
2023/05/04 01:35:40;;;;;;;3.72;1.90;;;;;;;7.24;100.00;101339.50;684225;28;858;-76
2023/05/04 01:36:01;;;;;;;4.37;2.17;;;;;;;7.23;100.00;101348.19;685895;28;1141;-76
2023/05/04 01:36:22;;;;;;;4.33;2.17;;;;;;;7.22;100.00;101349.00;686031;28;1205;-76
2023/05/04 01:36:43;;;;;;;4.63;2.30;;;;;;;7.21;100.00;101342.91;683148;28;2469;-76
2023/05/04 01:37:04;;;;;;;4.50;2.37;;;;;;;7.21;100.00;101349.84;683676;28;4376;-76
2023/05/04 01:37:24;;;;;;;4.90;2.20;;;;;;;7.20;100.00;101354.19;686135;28;1037;-75
2023/05/04 01:37:45;;;;;;;4.55;2.25;;;;;;;7.22;100.00;101346.41;682832;28;1445;-75
2023/05/04 01:38:07;;;;;;;4.25;2.22;;;;;;;7.19;100.00;101342.03;679789;28;1414;-76
2023/05/04 01:38:27;;;;;;;4.73;2.30;;;;;;;7.20;100.00;101337.69;684679;28;1176;-76
2023/05/04 01:38:48;;;;;;;4.43;2.22;;;;;;;7.20;100.00;101355.88;682159;29;1337;-76
2023/05/04 01:39:09;;;;;;;4.22;2.22;;;;;;;7.17;100.00;101333.31;685880;28;4910;-75
2023/05/04 01:39:29;;;;;;;4.50;2.40;;;;;;;7.18;100.00;101339.41;681508;29;2478;-76
2023/05/04 01:39:50;;;;;;;4.23;2.27;;;;;;;7.16;100.00;101342.84;684611;28;1200;-76
2023/05/04 01:40:10;;;;;;;5.80;2.20;;;;;;;7.19;100.00;101342.03;680476;28;4280;-76
2023/05/04 01:40:31;;;;;;;5.00;2.20;;;;;;;7.20;100.00;101337.69;678956;29;1280;-76
2023/05/04 01:40:52;;;;;;;4.10;2.10;;;;;;;7.20;100.00;101348.09;678414;29;1153;-76
2023/05/04 01:41:12;;;;;;;4.10;2.20;;;;;;;7.21;100.00;101334.25;681831;29;1544;-76
2023/05/04 01:41:32;;;;;;;5.00;2.23;;;;;;;7.20;100.00;101342.88;682026;29;1273;-76
2023/05/04 01:41:53;;;;;;;4.30;2.10;;;;;;;7.21;100.00;101347.25;680104;28;1209;-76
2023/05/04 01:42:13;;;;;;;3.50;2.03;;;;;;;7.21;100.00;101347.25;680918;29;2721;-76
2023/05/04 01:42:34;;;;;;;4.27;2.30;;;;;;;7.19;100.00;101354.16;683512;28;1137;-75
2023/05/04 01:42:54;;;;;;;4.80;2.30;;;;;;;7.18;100.00;101342.88;680508;28;1562;-76
2023/05/04 01:43:15;;;;;;;4.20;2.20;;;;;;;7.18;100.00;101336.81;683478;28;4354;-76
2023/05/04 01:43:35;;;;;;;3.40;2.00;;;;;;;7.18;100.00;101339.41;680927;29;1211;-76
2023/05/04 01:43:57;;;;;;;4.07;2.17;;;;;;;7.18;100.00;101336.81;683595;28;1389;-76
2023/05/04 01:44:20;;;;;;;5.18;2.55;;;;;;;7.17;100.00;101335.91;687175;28;1328;-76
2023/05/04 01:44:40;;;;;;;4.93;2.37;;;;;;;7.18;100.00;101344.59;683814;28;2498;-76
2023/05/04 01:45:02;;;;;;;3.97;2.17;;;;;;;7.19;100.00;101341.16;682881;28;940;-76
2023/05/04 01:45:22;;;;;;;4.30;2.15;;;;;;;7.18;100.00;101335.06;681353;29;1056;-76
2023/05/04 01:45:43;;;;;;;3.97;2.17;;;;;;;7.19;100.00;101338.56;682102;29;1088;-76
2023/05/04 01:46:06;;;;;;;4.00;2.17;;;;;;;7.18;100.00;101342.00;679587;28;4334;-75
2023/05/04 01:46:27;;;;;;;3.92;2.20;;;;;;;7.17;100.00;101333.31;684899;28;1494;-75
2023/05/04 01:46:47;;;;;;;4.18;2.28;;;;;;;7.17;100.00;101343.69;684592;28;1358;-75